Patch Grove, Wisconsin
Current Conditions -  °F | °C
As of 4:15 PM on Friday 24 Oct 2014 (Local Time) from KPDC Reporting Station
Haze Haze  
Wind Chill: 60°   Ceiling: 2100
Heat Index: 60°   Visibility: 2.5mi
Dew Point: 56°   Wind: 7mph
Humidity: 85%   Direction: 190°S
Pressure: 29.9"   Gusts: NA
Location:  42.94°N, 90.97°W
Report Text: KPDC 242115Z AUTO 19006KT 2 1/2SM BR OVC021 16/13 A2990 RMK AO2 T01560131
Loading
Personal Weather Stations






























Interactive Weather Map
Tropical Storm Tracking
New forecast layout! Learn more

10-Day Weather Forecast

Advertisements
Track Severe Weather on mobile